Cadiz, OH (43907)

08:22 AM EST die 06o February, anno 2016 (GMT -0500)
Steubenville Pike | | Change Station
CLOSE
Current Station
Personal Weather Stations
Location: Cadiz, OH
Elevation: 1237 ft
Nearby Weather Stations

Elev 1237 ft 40.28 °N, 80.99 °W | Updated 15 seconds ago

Serena
Serena
27.5 °F
Feels Like 28 °F
N
1.3
Ventus Variabilis Ventus from Magis Auster quam Eurus
Gusts 2.5 mph

Hodie
High -- | Low -- °F
--% Chance of Precip.
Yesterday
High -- | Low -- °F
Precip. -- in
Pressio 30.35 in
Visibilitas 10.0 milia passuum
Clouds Serena
Frigus Venti 28 °F
Frigus in quo Ros apparet 12 °F
Umor 52%
Rainfall 0.00 in
Snow Depth Not available.
7:28 AM 5:48 PM
Waning Crescent, 5% visible
METAR KHLG 061253Z AUTO 20007KT 10SM CLR M02/M09 A3030 RMK AO2 SLP277 T10171094
Pressio 30.35 in
Visibilitas 10.0 milia passuum
Clouds Serena
Frigus Venti 28 °F
Frigus in quo Ros apparet 12 °F
Umor 52%
Rainfall 0.00 in
Snow Depth Not available.
7:28 AM 5:48 PM
Waning Crescent, 5% visible
METAR KHLG 061253Z AUTO 20007KT 10SM CLR M02/M09 A3030 RMK AO2 SLP277 T10171094

10-Day Weather Forecast

Almanac

Astronomy

Feb. 06, 2016 Rise Set
Actual Time
Civil Twilight
Nautical Twilight
Astronomical Twilight
Moon
Length Of Visible Light
Length of Day
Tomorrow will be .
, % of the Moon is Illuminated

Today's Extremes

State Highs State Lows

Community

WunderPhotos

Upload Photos

1,890,965 photos uploaded!

WunderBlog® & News

Nearby

Air Quality

  Air Quality AQ Index Pollutant
Not available.

Snow Depth

Station Depth Elevation

Earthquake Activity

City Distance Mag. Time & Date
Minimum magnitude displayed is 2.5.

Coastal Water Temperatures

Locus Calor

Stations

Nearby Weather Stations

Station Location Temp Frigus Venti Frigus in quo Ros apparet Umor Ventus Precip. Elev Renovata Type
                   

Watches & Warnings

There are currently no watches in effect.